Virgem Dolorosa — CUEQ3 — position and weather

sailwx.info

Track history (hours):
 
Tides and Currents Weather Stations Pressure Air Temp Water Temp Dewpoint Dewpoint Depression Visibility Wind Speed Wind Dir Waves Ship Positions

Virgem Dolorosa

Last reported at 2018-Jun-19 22:00 UTC. Time now 2018-Jun-19 22:10 UTC.
Position N 41°11' W 008°42'.

Length 24 m.

Type: Fishing. MMSI: 263411260.

Date/timePositionNaut miles runAvg speedWind from/ knotsBaromVisibWave heightAir tempDewpointWater temp
2018-Jun-19 22:00N 41°11' W 008°42'0 0.0
2018-Jun-19 21:30N 41°11' W 008°42'0 0.0
2018-Jun-19 08:10N 41°11' W 008°42'0 0.0
2018-Jun-19 08:00N 41°11' W 008°42'0 0.0
2018-Jun-19 07:30N 41°11' W 008°42'0 0.0
2018-Jun-19 07:00N 41°11' W 008°42'0 0.0
2018-Jun-19 06:31N 41°11' W 008°42'0 0.0
2018-Jun-19 06:00N 41°11' W 008°42'2 0.3
2018-Jun-18 22:26N 41°09' W 008°43'2 4.8
2018-Jun-18 22:00N 41°11' W 008°42'0 0.0
2018-Jun-18 10:48N 41°11' W 008°42'0 0.0
2018-Jun-18 10:30N 41°11' W 008°42'0 0.0
2018-Jun-18 10:00N 41°11' W 008°42'0 0.0
2018-Jun-18 09:30N 41°11' W 008°42'0 0.0
2018-Jun-18 09:00N 41°11' W 008°42'0 0.0
2018-Jun-18 08:30N 41°11' W 008°42'0 0.0
2018-Jun-18 08:00N 41°11' W 008°42'2 0.2
2018-Jun-18 00:44N 41°10' W 008°44'2 7.0
2018-Jun-18 00:30N 41°11' W 008°42'0 0.0
2018-Jun-18 00:00N 41°11' W 008°42'0 0.0
2018-Jun-17 23:30N 41°11' W 008°42'0 0.0
2018-Jun-17 23:00N 41°11' W 008°42'0 0.0
2018-Jun-17 22:30N 41°11' W 008°42'  
2018-Jun-15 10:29N 41°11' W 008°42'0 0.0
2018-Jun-15 10:00N 41°11' W 008°42'0 0.0
2018-Jun-15 09:31N 41°11' W 008°42'0 0.0
2018-Jun-15 09:00N 41°11' W 008°42'0 0.0
2018-Jun-15 08:31N 41°11' W 008°42'2 0.2
2018-Jun-15 00:37N 41°09' W 008°43'1 8.6
2018-Jun-15 00:31N 41°10' W 008°43'1 1.8
2018-Jun-15 00:01N 41°11' W 008°42'0 0.0
2018-Jun-14 23:31N 41°11' W 008°42'0 0.0
2018-Jun-14 23:01N 41°11' W 008°42'0 0.0
2018-Jun-14 22:31N 41°11' W 008°42'0 0.0
2018-Jun-14 22:01N 41°11' W 008°42'0 0.0
2018-Jun-14 10:32N 41°11' W 008°42'0 0.0
2018-Jun-14 10:31N 41°11' W 008°42'0 0.0
2018-Jun-14 10:00N 41°11' W 008°42'0 0.0
2018-Jun-14 09:31N 41°11' W 008°42'0 0.0
2018-Jun-14 09:01N 41°11' W 008°42'0 0.0
2018-Jun-14 08:30N 41°11' W 008°42'2 0.3
2018-Jun-14 00:44N 41°10' W 008°44'2 8.1
2018-Jun-14 00:31N 41°11' W 008°42'0 0.3
2018-Jun-14 00:01N 41°11' W 008°42'0 0.0
2018-Jun-13 23:31N 41°11' W 008°42'0 0.0
2018-Jun-13 23:01N 41°11' W 008°42'0 0.0
2018-Jun-13 22:31N 41°11' W 008°42'0 0.0
2018-Jun-13 22:01N 41°11' W 008°42'0 0.0
2018-Jun-13 01:31N 41°11' W 008°42'0 0.0
2018-Jun-13 01:30N 41°11' W 008°42'1 1.8
2018-Jun-13 01:00N 41°10' W 008°42'3 1.7
2018-Jun-12 23:00N 41°07' W 008°45'4 8.4
2018-Jun-12 22:31N 41°11' W 008°42'0 0.0
2018-Jun-12 22:00N 41°11' W 008°42'0 0.0
2018-Jun-12 09:19N 41°11' W 008°42'0 0.0
2018-Jun-12 09:00N 41°11' W 008°42'0 0.0
2018-Jun-12 08:31N 41°11' W 008°42'0 0.0
2018-Jun-12 08:00N 41°11' W 008°42'0 0.0
2018-Jun-12 06:49N 41°11' W 008°42'0 0.0
2018-Jun-12 06:30N 41°11' W 008°42'0 0.0
2018-Jun-12 06:00N 41°11' W 008°42'2 0.3
2018-Jun-11 22:26N 41°09' W 008°43'2 5.2
2018-Jun-11 22:00N 41°11' W 008°42'0 0.0
2018-Jun-11 07:17N 41°11' W 008°42'0 0.8
2018-Jun-11 07:00N 41°11' W 008°42'  
Track history (hours):
 
Tides and Currents Weather Stations Pressure Air Temp Water Temp Dewpoint Dewpoint Depression Visibility Wind Speed Wind Dir Waves Ship Positions

Virgem Dolorosa

Last reported at 2018-Jun-19 22:00 UTC. Time now 2018-Jun-19 22:10 UTC.
Position N 41°11' W 008°42'.

Length 24 m.

Type: Fishing. MMSI: 263411260.

Date/timePositionNaut miles runAvg speedWind from/ knotsBaromVisibWave heightAir tempDewpointWater temp
2018-Jun-19 22:00N 41°11' W 008°42'0 0.0
2018-Jun-19 21:30N 41°11' W 008°42'0 0.0
2018-Jun-19 08:10N 41°11' W 008°42'0 0.0
2018-Jun-19 08:00N 41°11' W 008°42'0 0.0
2018-Jun-19 07:30N 41°11' W 008°42'0 0.0
2018-Jun-19 07:00N 41°11' W 008°42'0 0.0
2018-Jun-19 06:31N 41°11' W 008°42'0 0.0
2018-Jun-19 06:00N 41°11' W 008°42'2 0.3
2018-Jun-18 22:26N 41°09' W 008°43'2 4.8
2018-Jun-18 22:00N 41°11' W 008°42'0 0.0
2018-Jun-18 10:48N 41°11' W 008°42'0 0.0
2018-Jun-18 10:30N 41°11' W 008°42'0 0.0
2018-Jun-18 10:00N 41°11' W 008°42'0 0.0
2018-Jun-18 09:30N 41°11' W 008°42'0 0.0
2018-Jun-18 09:00N 41°11' W 008°42'0 0.0
2018-Jun-18 08:30N 41°11' W 008°42'0 0.0
2018-Jun-18 08:00N 41°11' W 008°42'2 0.2
2018-Jun-18 00:44N 41°10' W 008°44'2 7.0
2018-Jun-18 00:30N 41°11' W 008°42'0 0.0
2018-Jun-18 00:00N 41°11' W 008°42'0 0.0
2018-Jun-17 23:30N 41°11' W 008°42'0 0.0
2018-Jun-17 23:00N 41°11' W 008°42'0 0.0
2018-Jun-17 22:30N 41°11' W 008°42'  
2018-Jun-15 10:29N 41°11' W 008°42'0 0.0
2018-Jun-15 10:00N 41°11' W 008°42'0 0.0
2018-Jun-15 09:31N 41°11' W 008°42'0 0.0
2018-Jun-15 09:00N 41°11' W 008°42'0 0.0
2018-Jun-15 08:31N 41°11' W 008°42'2 0.2
2018-Jun-15 00:37N 41°09' W 008°43'1 8.6
2018-Jun-15 00:31N 41°10' W 008°43'1 1.8
2018-Jun-15 00:01N 41°11' W 008°42'0 0.0
2018-Jun-14 23:31N 41°11' W 008°42'0 0.0
2018-Jun-14 23:01N 41°11' W 008°42'0 0.0
2018-Jun-14 22:31N 41°11' W 008°42'0 0.0
2018-Jun-14 22:01N 41°11' W 008°42'0 0.0
2018-Jun-14 10:32N 41°11' W 008°42'0 0.0
2018-Jun-14 10:31N 41°11' W 008°42'0 0.0
2018-Jun-14 10:00N 41°11' W 008°42'0 0.0
2018-Jun-14 09:31N 41°11' W 008°42'0 0.0
2018-Jun-14 09:01N 41°11' W 008°42'0 0.0
2018-Jun-14 08:30N 41°11' W 008°42'2 0.3
2018-Jun-14 00:44N 41°10' W 008°44'2 8.1
2018-Jun-14 00:31N 41°11' W 008°42'0 0.3
2018-Jun-14 00:01N 41°11' W 008°42'0 0.0
2018-Jun-13 23:31N 41°11' W 008°42'0 0.0
2018-Jun-13 23:01N 41°11' W 008°42'0 0.0
2018-Jun-13 22:31N 41°11' W 008°42'0 0.0
2018-Jun-13 22:01N 41°11' W 008°42'0 0.0
2018-Jun-13 01:31N 41°11' W 008°42'0 0.0
2018-Jun-13 01:30N 41°11' W 008°42'1 1.8
2018-Jun-13 01:00N 41°10' W 008°42'3 1.7
2018-Jun-12 23:00N 41°07' W 008°45'4 8.4
2018-Jun-12 22:31N 41°11' W 008°42'0 0.0
2018-Jun-12 22:00N 41°11' W 008°42'0 0.0
2018-Jun-12 09:19N 41°11' W 008°42'0 0.0
2018-Jun-12 09:00N 41°11' W 008°42'0 0.0
2018-Jun-12 08:31N 41°11' W 008°42'0 0.0
2018-Jun-12 08:00N 41°11' W 008°42'0 0.0
2018-Jun-12 06:49N 41°11' W 008°42'0 0.0
2018-Jun-12 06:30N 41°11' W 008°42'0 0.0
2018-Jun-12 06:00N 41°11' W 008°42'2 0.3
2018-Jun-11 22:26N 41°09' W 008°43'2 5.2
2018-Jun-11 22:00N 41°11' W 008°42'0 0.0
2018-Jun-11 07:17N 41°11' W 008°42'0 0.8
2018-Jun-11 07:00N 41°11' W 008°42'  

Dump ship's entire track history